Time;durP1;ratioP1;P1;durP2;ratioP2;P2;SDS_P1;SDS_P2;PMS_P1;PMS_P2;Temp;Humidity;BMP_temperature;BMP_pressure;BME280_temperature;BME280_humidity;BME280_pressure;Samples;Min_cycle;Max_cycle;Signal;HPM_P1;HPM_P2
2022/12/12 00:00:36;;;;;;;47.03;32.50;;;1.70;99.90;;;;;;4994103;28;20034;-85
2022/12/12 00:03:03;;;;;;;58.87;37.00;;;1.70;99.90;;;;;;4994843;28;20041;-86
2022/12/12 00:05:29;;;;;;;55.40;35.40;;;1.70;99.90;;;;;;5013476;28;20033;-85
2022/12/12 00:07:55;;;;;;;55.03;35.47;;;1.60;99.90;;;;;;5014612;28;20097;-85
2022/12/12 00:10:21;;;;;;;54.67;36.87;;;1.60;99.90;;;;;;4998588;28;20138;-85
2022/12/12 00:12:47;;;;;;;55.63;36.97;;;1.60;99.90;;;;;;4982276;28;20042;-85
2022/12/12 00:15:13;;;;;;;53.10;34.07;;;1.50;99.90;;;;;;4997567;28;20053;-86
2022/12/12 00:17:39;;;;;;;56.83;35.27;;;1.50;99.90;;;;;;4998265;28;20390;-86
2022/12/12 00:20:06;;;;;;;62.97;35.93;;;1.50;99.90;;;;;;5004299;28;20033;-85
2022/12/12 00:22:32;;;;;;;57.97;36.10;;;1.60;99.90;;;;;;5011201;28;20049;-86
2022/12/12 00:24:58;;;;;;;58.60;36.23;;;1.50;99.90;;;;;;4994554;28;20038;-86
2022/12/12 00:27:24;;;;;;;59.43;35.43;;;1.50;99.90;;;;;;5027723;28;20510;-85
2022/12/12 00:29:53;;;;;;;49.97;35.10;;;1.40;99.90;;;;;;5010724;28;20037;-86
2022/12/12 00:32:19;;;;;;;51.80;35.47;;;1.40;99.90;;;;;;5010487;28;20061;-86
2022/12/12 00:34:45;;;;;;;54.97;35.70;;;1.50;99.90;;;;;;5011000;28;20061;-85
2022/12/12 00:37:12;;;;;;;57.53;35.77;;;1.40;99.90;;;;;;5027153;28;20034;-85
2022/12/12 00:39:38;;;;;;;56.77;37.90;;;1.40;99.90;;;;;;5027074;28;20041;-86
2022/12/12 00:42:04;;;;;;;58.17;37.37;;;1.30;99.90;;;;;;5027234;28;20364;-86
2022/12/12 00:44:30;;;;;;;62.90;38.60;;;1.30;99.90;;;;;;4994223;28;20042;-86
2022/12/12 00:46:56;;;;;;;59.43;37.67;;;1.30;99.90;;;;;;4994094;28;20393;-86
2022/12/12 00:49:22;;;;;;;58.27;36.83;;;1.30;99.90;;;;;;5010631;28;20042;-85
2022/12/12 00:51:48;;;;;;;52.47;35.80;;;1.20;99.90;;;;;;5026949;28;20037;-86
2022/12/12 00:54:14;;;;;;;52.60;35.33;;;1.30;99.90;;;;;;5026979;28;20049;-86
2022/12/12 00:56:40;;;;;;;54.57;35.53;;;1.30;99.90;;;;;;5024016;28;20026;-86
2022/12/12 00:59:06;;;;;;;63.50;37.20;;;1.40;99.90;;;;;;4997281;28;20418;-86
2022/12/12 01:01:33;;;;;;;53.90;35.43;;;1.40;99.90;;;;;;4980854;28;20030;-85
2022/12/12 01:03:59;;;;;;;64.00;38.73;;;1.30;99.90;;;;;;4981322;28;20049;-85
2022/12/12 01:06:26;;;;;;;61.73;39.27;;;1.30;99.90;;;;;;5013588;28;20037;-86
2022/12/12 01:08:52;;;;;;;61.13;39.87;;;1.30;99.90;;;;;;5013561;28;20379;-86
2022/12/12 01:11:19;;;;;;;64.80;39.77;;;1.20;99.90;;;;;;5013121;28;20034;-85
2022/12/12 01:13:46;;;;;;;65.63;39.97;;;1.10;99.90;;;;;;4997038;28;20056;-86
2022/12/12 01:16:12;;;;;;;59.07;36.43;;;1.10;99.90;;;;;;4995458;28;20061;-85
2022/12/12 01:18:39;;;;;;;57.60;37.27;;;1.10;99.90;;;;;;4997203;28;20044;-86
2022/12/12 01:21:09;;;;;;;60.30;38.00;;;1.10;99.90;;;;;;4979129;28;20046;-86
2022/12/12 01:23:35;;;;;;;55.80;36.25;;;1.10;99.90;;;;;;5026464;28;20030;-86
2022/12/12 01:26:10;;;;;;;53.63;35.90;;;1.10;99.90;;;;;;5025935;28;20046;-86
2022/12/12 01:28:37;;;;;;;53.40;35.57;;;1.10;99.90;;;;;;5010169;28;20035;-86
2022/12/12 01:31:03;;;;;;;57.50;35.90;;;1.00;99.90;;;;;;5025912;28;20034;-87
2022/12/12 01:33:29;;;;;;;51.63;33.17;;;1.00;99.90;;;;;;5009900;28;20038;-86
2022/12/12 01:35:55;;;;;;;57.20;35.63;;;1.00;99.90;;;;;;5026173;28;20042;-86
2022/12/12 01:38:23;;;;;;;60.80;35.77;;;1.00;99.90;;;;;;5009829;28;20054;-86
2022/12/12 01:40:50;;;;;;;52.57;33.50;;;0.90;99.90;;;;;;4993113;28;20483;-86
2022/12/12 01:43:17;;;;;;;55.37;35.17;;;0.90;99.90;;;;;;5026386;28;20046;-86
2022/12/12 01:45:58;;;;;;;54.67;35.87;;;1.00;99.90;;;;;;5009055;28;20530;-86
2022/12/12 01:48:27;;;;;;;53.30;35.57;;;1.00;99.90;;;;;;5025743;28;20030;-87
2022/12/12 01:50:55;;;;;;;52.63;34.87;;;1.00;99.90;;;;;;5025797;28;20034;-86
2022/12/12 01:53:21;;;;;;;47.00;33.17;;;1.00;99.90;;;;;;4993518;28;20110;-85
2022/12/12 01:55:47;;;;;;;54.13;35.47;;;0.80;99.90;;;;;;5031631;28;20499;-86
2022/12/12 01:58:13;;;;;;;51.67;34.80;;;0.60;99.90;;;;;;4996325;28;20022;-86
2022/12/12 02:00:40;;;;;;;52.30;33.33;;;0.60;99.90;;;;;;4995911;28;20034;-87
2022/12/12 02:03:06;;;;;;;46.03;31.47;;;0.60;99.90;;;;;;4980235;28;20042;-86
2022/12/12 02:05:50;;;;;;;46.47;33.47;;;0.70;99.90;;;;;;4996500;28;20388;-85
2022/12/12 02:08:17;;;;;;;51.97;33.27;;;0.70;99.90;;;;;;5012645;28;20032;-87
2022/12/12 02:10:44;;;;;;;52.33;32.97;;;0.80;99.90;;;;;;4995950;28;20030;-86
2022/12/12 02:13:15;;;;;;;49.20;33.60;;;0.80;99.90;;;;;;4980074;28;20041;-87
2022/12/12 02:16:03;;;;;;;51.23;33.00;;;0.80;99.90;;;;;;4995721;28;20045;-86
2022/12/12 02:18:35;;;;;;;49.80;30.47;;;0.80;99.90;;;;;;4998051;28;20038;-86
2022/12/12 02:21:30;;;;;;;48.70;33.13;;;0.80;99.90;;;;;;4994714;28;20030;-87
2022/12/12 02:24:05;;;;;;;46.57;30.20;;;0.80;99.90;;;;;;5025005;28;20027;-87
2022/12/12 02:26:40;;;;;;;51.07;33.10;;;0.80;99.90;;;;;;4993545;28;20046;-87
2022/12/12 02:29:18;;;;;;;51.23;32.80;;;0.80;99.90;;;;;;5025051;28;20038;-87
2022/12/12 02:32:00;;;;;;;51.53;32.90;;;0.80;99.90;;;;;;5024979;28;20049;-86
2022/12/12 02:34:49;;;;;;;51.47;32.87;;;0.70;99.90;;;;;;4993496;28;20464;-86
2022/12/12 02:37:25;;;;;;;53.13;32.83;;;0.70;99.90;;;;;;4992696;28;20034;-86
2022/12/12 02:40:11;;;;;;;777.63;92.87;;;0.70;99.90;;;;;;5008592;28;20533;-87
2022/12/12 02:42:45;;;;;;;50.60;33.53;;;0.70;99.90;;;;;;5008906;28;20034;-87
2022/12/12 02:45:11;;;;;;;54.37;32.57;;;0.70;99.90;;;;;;5024592;28;20376;-87
2022/12/12 02:47:44;;;;;;;51.13;33.30;;;0.70;99.90;;;;;;4993423;28;20023;-87
2022/12/12 02:50:13;;;;;;;51.93;32.67;;;0.60;99.90;;;;;;5008814;28;20042;-87
2022/12/12 02:52:41;;;;;;;48.37;32.33;;;0.70;99.90;;;;;;5025140;28;20396;-87
2022/12/12 02:55:08;;;;;;;49.17;32.87;;;0.60;99.90;;;;;;4992930;28;20050;-87
2022/12/12 02:57:34;;;;;;;48.70;32.90;;;0.60;99.90;;;;;;4995576;28;20034;-87
2022/12/12 03:00:01;;;;;;;53.10;33.23;;;0.60;99.90;;;;;;4995622;28;20049;-87
2022/12/12 03:02:51;;;;;;;51.20;34.30;;;0.50;99.90;;;;;;5005092;28;20038;-87
2022/12/12 03:08:05;;;;;;;47.50;31.50;;;0.50;99.90;;;;;;4991470;28;20062;-87
2022/12/12 03:10:44;;;;;;;48.10;31.30;;;0.50;99.90;;;;;;4991509;28;20030;-88
2022/12/12 03:13:19;;;;;;;48.37;31.10;;;0.50;99.90;;;;;;5003760;28;20039;-87
2022/12/12 03:16:13;;;;;;;48.00;31.80;;;0.50;99.90;;;;;;5002491;28;20610;-88
2022/12/12 03:18:55;;;;;;;48.23;31.40;;;0.50;99.90;;;;;;4972538;28;20039;-87
2022/12/12 03:21:50;;;;;;;44.03;30.27;;;0.40;99.90;;;;;;4986009;28;20031;-88
2022/12/12 03:24:20;;;;;;;47.60;32.73;;;0.40;99.90;;;;;;4970969;28;20046;-87
2022/12/12 03:26:51;;;;;;;51.45;32.38;;;0.40;99.90;;;;;;4968042;28;20042;-86
2022/12/12 03:29:33;;;;;;;49.03;32.42;;;0.40;99.90;;;;;;4971929;28;20500;-89
2022/12/12 03:32:14;;;;;;;47.77;31.27;;;0.30;99.90;;;;;;4986911;28;20058;-88
2022/12/12 03:34:46;;;;;;;52.90;31.48;;;0.40;99.90;;;;;;4987333;28;20065;-87
2022/12/12 03:37:14;;;;;;;42.90;29.70;;;0.30;99.90;;;;;;4978393;28;20027;-87
2022/12/12 03:39:56;;;;;;;48.57;30.20;;;0.20;99.90;;;;;;5009753;28;20479;-87
2022/12/12 03:42:46;;;;;;;50.10;31.43;;;0.30;99.90;;;;;;5011955;28;20037;-87
2022/12/12 03:45:19;;;;;;;48.60;31.45;;;0.30;99.90;;;;;;4997605;28;20137;-88
2022/12/12 03:47:52;;;;;;;49.07;32.27;;;0.30;99.90;;;;;;4998114;28;20038;-88
2022/12/12 03:50:22;;;;;;;44.90;31.33;;;0.20;99.90;;;;;;4981444;28;20149;-87
2022/12/12 03:52:53;;;;;;;46.83;30.85;;;0.20;99.90;;;;;;4981022;28;20141;-88
2022/12/12 03:55:31;;;;;;;43.80;30.80;;;0.20;99.90;;;;;;4999917;28;20053;-88
2022/12/12 03:57:59;;;;;;;44.77;30.33;;;0.20;99.90;;;;;;5017999;28;20029;-86
2022/12/12 04:00:26;;;;;;;49.37;31.97;;;0.30;99.90;;;;;;4984181;28;20033;-88
2022/12/12 04:03:01;;;;;;;48.50;29.77;;;0.20;99.90;;;;;;4984768;28;20048;-87
2022/12/12 04:05:35;;;;;;;47.43;31.57;;;0.10;99.90;;;;;;4985316;28;20076;-88
2022/12/12 04:08:06;;;;;;;49.60;31.63;;;0.30;99.90;;;;;;4985317;28;20099;-86
2022/12/12 04:13:27;;;;;;;47.00;30.40;;;0.10;99.90;;;;;;5007416;28;20101;-85
2022/12/12 04:16:01;;;;;;;46.83;31.13;;;0.20;99.90;;;;;;5016242;28;20041;-86
2022/12/12 04:18:45;;;;;;;47.83;29.80;;;0.30;99.90;;;;;;5017351;28;20064;-85
2022/12/12 04:24:16;;;;;;;42.40;30.07;;;0.10;99.90;;;;;;5009589;28;20041;-86
2022/12/12 04:26:57;;;;;;;47.60;31.17;;;0.00;99.90;;;;;;5027308;28;20054;-83
2022/12/12 04:29:38;;;;;;;46.43;30.77;;;0.00;99.90;;;;;;5027341;28;20042;-86
2022/12/12 04:32:04;;;;;;;;;;;0.20;99.90;;;;;;4995915;28;20038;-86
2022/12/12 04:34:39;;;;;;;39.97;25.83;;;0.10;99.90;;;;;;5010507;28;20354;-86
2022/12/12 04:37:06;;;;;;;41.70;29.43;;;-0.40;99.90;;;;;;5027123;28;20053;-85
2022/12/12 04:39:32;;;;;;;44.30;29.27;;;-0.80;99.90;;;;;;5011009;28;20038;-85
2022/12/12 04:41:58;;;;;;;42.03;29.93;;;-0.80;99.90;;;;;;4994701;28;20391;-85
2022/12/12 04:44:24;;;;;;;41.67;28.93;;;-0.80;99.90;;;;;;5010969;28;20039;-85
2022/12/12 04:46:51;;;;;;;46.13;29.67;;;-0.80;99.90;;;;;;5026648;28;20403;-86
2022/12/12 04:49:19;;;;;;;42.30;30.23;;;-0.80;99.90;;;;;;5027131;28;20467;-85
2022/12/12 04:51:47;;;;;;;42.77;31.00;;;-0.70;99.90;;;;;;5026923;28;20388;-86
2022/12/12 04:54:40;;;;;;;44.90;29.57;;;-0.50;99.90;;;;;;5010836;28;20041;-85
2022/12/12 04:57:07;;;;;;;42.40;27.50;;;-0.30;99.90;;;;;;5027653;28;20065;-86
2022/12/12 04:59:33;;;;;;;43.90;28.03;;;-0.20;99.90;;;;;;4997512;28;20493;-86
2022/12/12 05:02:02;;;;;;;42.03;28.80;;;-0.20;99.90;;;;;;4997145;28;20402;-85
2022/12/12 05:04:38;;;;;;;37.93;25.73;;;-0.10;99.90;;;;;;5013565;28;20034;-86
2022/12/12 05:07:17;;;;;;;44.37;30.87;;;-0.10;99.90;;;;;;4982356;28;20049;-85
2022/12/12 05:09:43;;;;;;;45.83;29.70;;;-0.10;99.90;;;;;;4997604;28;20025;-86
2022/12/12 05:12:09;;;;;;;41.53;28.80;;;-0.10;99.90;;;;;;4981326;28;20041;-86
2022/12/12 05:14:35;;;;;;;39.30;28.17;;;0.00;99.90;;;;;;4997237;28;20490;-86
2022/12/12 05:17:08;;;;;;;39.03;26.77;;;0.10;99.90;;;;;;4980729;28;20026;-86
2022/12/12 05:19:34;;;;;;;44.03;27.17;;;0.10;99.90;;;;;;4992096;28;20045;-86
2022/12/12 05:22:00;;;;;;;48.13;29.67;;;-0.20;99.90;;;;;;5010359;28;20038;-86
2022/12/12 05:24:30;;;;;;;44.93;30.53;;;-0.80;99.90;;;;;;5010030;28;20387;-86
2022/12/12 05:26:57;;;;;;;47.00;30.27;;;-0.90;99.90;;;;;;5009533;28;20050;-85
2022/12/12 05:29:23;;;;;;;40.93;30.00;;;-0.80;99.90;;;;;;4994153;28;20045;-85
2022/12/12 05:31:49;;;;;;;47.30;29.90;;;-0.60;99.90;;;;;;4994478;28;20522;-86
2022/12/12 05:34:15;;;;;;;43.50;30.07;;;-0.50;99.90;;;;;;4994441;28;20034;-86
2022/12/12 05:36:41;;;;;;;42.40;28.47;;;-0.60;99.90;;;;;;5009894;28;20035;-86
2022/12/12 05:39:08;;;;;;;46.30;30.03;;;-0.50;99.90;;;;;;5010105;28;20038;-85
2022/12/12 05:41:34;;;;;;;44.27;29.00;;;-0.40;99.90;;;;;;5009746;28;20019;-85
2022/12/12 05:44:00;;;;;;;44.57;29.90;;;-0.40;99.90;;;;;;5010069;28;20049;-85
2022/12/12 05:46:26;;;;;;;42.90;29.70;;;-0.30;99.90;;;;;;5025589;28;20081;-86
2022/12/12 05:48:52;;;;;;;43.73;30.73;;;-0.30;99.90;;;;;;5009628;28;20041;-86
2022/12/12 05:51:18;;;;;;;42.07;30.17;;;-0.40;99.90;;;;;;5009778;28;20035;-85
2022/12/12 05:53:44;;;;;;;41.63;28.47;;;-0.50;99.90;;;;;;4993340;28;20392;-84
2022/12/12 05:56:11;;;;;;;46.17;29.10;;;-0.40;99.90;;;;;;5019079;28;20054;-86
2022/12/12 05:58:41;;;;;;;47.83;29.10;;;-0.30;99.90;;;;;;4980716;28;20045;-86
2022/12/12 06:01:07;;;;;;;44.63;27.67;;;-0.30;99.90;;;;;;4979890;28;20037;-85
2022/12/12 06:03:33;;;;;;;44.40;28.37;;;-0.30;99.90;;;;;;5011627;28;20466;-86
2022/12/12 06:05:59;;;;;;;42.23;28.60;;;-0.30;99.90;;;;;;4996406;28;20038;-85
2022/12/12 06:08:25;;;;;;;46.63;28.60;;;-0.40;99.90;;;;;;5012542;28;20026;-85
2022/12/12 06:10:52;;;;;;;47.97;30.27;;;-0.50;99.90;;;;;;4996219;28;20490;-85
2022/12/12 06:13:18;;;;;;;51.00;30.73;;;-0.50;99.90;;;;;;4996531;28;20037;-86
2022/12/12 06:15:44;;;;;;;45.93;30.60;;;-0.40;99.90;;;;;;4995380;28;20033;-85
2022/12/12 06:18:11;;;;;;;47.07;30.43;;;-0.30;99.90;;;;;;4980125;28;20046;-86
2022/12/12 06:20:37;;;;;;;46.43;31.77;;;-0.30;99.90;;;;;;4982119;28;20050;-86
2022/12/12 06:23:03;;;;;;;50.80;32.60;;;-0.30;99.90;;;;;;5025348;28;20038;-85
2022/12/12 06:25:29;;;;;;;90.40;33.93;;;-0.30;99.90;;;;;;5025105;28;20041;-85
2022/12/12 06:27:55;;;;;;;51.63;31.97;;;-0.30;99.90;;;;;;5008192;28;20480;-85
2022/12/12 06:30:22;;;;;;;42.43;30.33;;;-0.30;99.90;;;;;;5007407;28;20027;-85
2022/12/12 06:32:48;;;;;;;48.27;31.60;;;-0.30;99.90;;;;;;5008401;28;20479;-86
2022/12/12 06:35:14;;;;;;;81.73;42.03;;;-0.30;99.90;;;;;;5007987;28;20049;-85
2022/12/12 06:37:41;;;;;;;68.97;39.87;;;-0.30;99.90;;;;;;5008148;28;20042;-85
2022/12/12 06:40:07;;;;;;;116.40;63.67;;;-0.30;99.90;;;;;;5008030;28;20034;-85
2022/12/12 06:42:33;;;;;;;73.13;42.93;;;-0.40;99.90;;;;;;5024216;28;20026;-86
2022/12/12 06:44:59;;;;;;;54.43;35.67;;;-0.70;99.90;;;;;;4991037;28;20038;-85
2022/12/12 06:47:25;;;;;;;52.73;35.07;;;-1.00;99.90;;;;;;5007431;28;20030;-85
2022/12/12 06:49:52;;;;;;;65.77;39.10;;;-1.20;99.90;;;;;;5007970;28;20381;-85
2022/12/12 06:52:18;;;;;;;84.17;47.00;;;-1.00;99.90;;;;;;5007553;28;20037;-86
2022/12/12 06:54:45;;;;;;;61.93;38.57;;;-0.80;99.90;;;;;;5023942;28;20034;-85
2022/12/12 06:57:11;;;;;;;53.37;36.23;;;-0.90;99.90;;;;;;5025243;28;20041;-87
2022/12/12 06:59:37;;;;;;;55.80;35.23;;;-0.80;99.90;;;;;;4994482;28;20033;-85
2022/12/12 07:02:03;;;;;;;49.20;33.57;;;-0.70;99.90;;;;;;5010538;28;20045;-85
2022/12/12 07:04:29;;;;;;;56.67;34.17;;;-0.60;99.90;;;;;;4994597;28;20026;-85
2022/12/12 07:06:55;;;;;;;53.80;34.00;;;-0.40;99.90;;;;;;4994683;28;20026;-85
2022/12/12 07:09:22;;;;;;;55.93;34.70;;;-0.40;99.90;;;;;;4994583;28;20025;-86
2022/12/12 07:11:48;;;;;;;55.47;33.67;;;-0.30;99.90;;;;;;4994484;28;20506;-86
2022/12/12 07:14:14;;;;;;;53.70;34.60;;;-0.30;99.90;;;;;;4993176;28;20038;-85
2022/12/12 07:16:40;;;;;;;46.27;30.77;;;-0.40;99.90;;;;;;4993818;28;20052;-86
2022/12/12 07:19:06;;;;;;;51.60;32.43;;;-0.80;99.90;;;;;;4976606;28;20046;-86
2022/12/12 07:21:32;;;;;;;53.43;35.57;;;-1.20;99.90;;;;;;5007724;28;20479;-85
2022/12/12 07:23:58;;;;;;;56.83;34.67;;;-1.30;99.90;;;;;;5023940;28;20379;-85
2022/12/12 07:26:24;;;;;;;54.13;34.87;;;-1.00;99.90;;;;;;4946952;28;1284829;-86
2022/12/12 07:28:50;;;;;;;53.13;34.57;;;-0.90;99.90;;;;;;5007799;28;20042;-85
2022/12/12 07:31:19;;;;;;;52.47;33.67;;;-1.00;99.90;;;;;;5007955;28;20058;-86
2022/12/12 07:33:45;;;;;;;55.30;35.47;;;-1.30;99.90;;;;;;5024505;28;20022;-86
2022/12/12 07:36:12;;;;;;;52.03;35.10;;;-1.40;99.90;;;;;;5008194;28;20051;-85
2022/12/12 07:38:38;;;;;;;62.67;35.50;;;-1.30;99.90;;;;;;5008381;28;20034;-85
2022/12/12 07:41:06;;;;;;;60.77;37.00;;;-1.10;99.90;;;;;;5024338;28;20030;-85
2022/12/12 07:43:36;;;;;;;56.57;37.67;;;-1.30;99.90;;;;;;5007945;28;20044;-86
2022/12/12 07:46:05;;;;;;;59.38;38.20;;;-1.20;99.90;;;;;;5007664;28;20038;-85
2022/12/12 07:48:31;;;;;;;60.53;38.70;;;-1.00;99.90;;;;;;4991494;28;20035;-86
2022/12/12 07:51:00;;;;;;;65.13;38.83;;;-1.10;99.90;;;;;;4992955;28;20030;-85
2022/12/12 07:53:27;;;;;;;64.67;39.50;;;-1.20;99.90;;;;;;5007861;28;20491;-86
2022/12/12 07:55:53;;;;;;;217.73;50.10;;;-1.20;99.90;;;;;;5031683;28;20038;-85
2022/12/12 07:58:19;;;;;;;64.53;40.50;;;-0.90;99.90;;;;;;4978496;28;20368;-86
2022/12/12 08:00:45;;;;;;;65.60;41.33;;;-0.90;99.90;;;;;;5010926;28;20038;-86
2022/12/12 08:03:11;;;;;;;67.97;39.43;;;-0.80;99.90;;;;;;4979050;28;20136;-86
2022/12/12 08:05:41;;;;;;;57.70;38.20;;;-0.70;99.90;;;;;;5012292;28;20033;-86
2022/12/12 08:08:07;;;;;;;58.80;34.63;;;-0.80;99.90;;;;;;5011284;28;20029;-86
2022/12/12 08:10:33;;;;;;;59.00;36.20;;;-1.00;99.90;;;;;;4995218;28;20395;-85
2022/12/12 08:12:59;;;;;;;67.87;39.73;;;-1.20;99.90;;;;;;4994695;28;20033;-86
2022/12/12 08:15:25;;;;;;;73.50;41.53;;;-1.30;99.90;;;;;;5010677;28;20030;-86
2022/12/12 08:17:52;;;;;;;65.20;39.80;;;-1.30;99.90;;;;;;4994842;28;20042;-85
2022/12/12 08:20:18;;;;;;;64.23;39.73;;;-1.30;99.90;;;;;;5000859;28;20029;-86
2022/12/12 08:22:44;;;;;;;55.90;37.27;;;-1.10;99.90;;;;;;5008149;28;20053;-86
2022/12/12 08:25:10;;;;;;;47.13;33.33;;;-1.00;99.90;;;;;;5008774;28;20045;-85
2022/12/12 08:27:36;;;;;;;55.47;35.43;;;-1.20;99.90;;;;;;5011289;28;20510;-85
2022/12/12 08:30:02;;;;;;;56.80;37.33;;;-1.20;99.90;;;;;;5011064;28;20041;-82
2022/12/12 08:32:28;;;;;;;52.03;33.60;;;-1.20;99.90;;;;;;5011457;28;20403;-86
2022/12/12 08:34:58;;;;;;;57.47;35.90;;;-1.10;99.90;;;;;;4995247;28;20042;-86
2022/12/12 08:37:24;;;;;;;58.23;37.67;;;-1.10;99.90;;;;;;5027651;28;20042;-86
2022/12/12 08:39:50;;;;;;;54.90;36.60;;;-1.10;99.90;;;;;;5027911;28;20030;-86
2022/12/12 08:42:16;;;;;;;60.13;38.03;;;-0.90;99.90;;;;;;5027327;28;20365;-86
2022/12/12 08:44:42;;;;;;;56.37;37.00;;;-0.80;99.90;;;;;;4994693;28;20038;-86
2022/12/12 08:47:09;;;;;;;46.90;32.70;;;-0.90;99.90;;;;;;4994052;28;20472;-86
2022/12/12 08:49:35;;;;;;;57.43;36.73;;;-1.00;99.90;;;;;;5011222;28;20435;-85
2022/12/12 08:52:04;;;;;;;55.70;38.00;;;-1.00;99.90;;;;;;5011100;28;20042;-85
2022/12/12 08:54:31;;;;;;;50.57;34.43;;;-0.90;99.90;;;;;;5026415;28;20041;-86
2022/12/12 08:56:57;;;;;;;58.43;39.13;;;-0.90;99.90;;;;;;5026671;28;20054;-86
2022/12/12 08:59:23;;;;;;;55.17;38.57;;;-0.90;99.90;;;;;;4981976;28;20038;-84
2022/12/12 09:01:49;;;;;;;60.23;38.27;;;-0.80;99.90;;;;;;4997413;28;20045;-86
2022/12/12 09:04:15;;;;;;;66.80;43.47;;;-0.80;99.90;;;;;;4998074;28;20038;-87
2022/12/12 09:06:41;;;;;;;66.47;42.07;;;-0.80;99.90;;;;;;4997946;28;20049;-86
2022/12/12 09:09:07;;;;;;;54.00;37.63;;;-0.70;99.90;;;;;;4997523;28;20037;-85
2022/12/12 09:11:33;;;;;;;62.23;40.17;;;-0.70;99.90;;;;;;4997471;28;20475;-86
2022/12/12 09:13:59;;;;;;;64.20;43.20;;;-0.60;99.90;;;;;;4997663;28;20048;-86
2022/12/12 09:16:28;;;;;;;59.43;41.30;;;-0.40;99.90;;;;;;5013108;28;20056;-87
2022/12/12 09:18:55;;;;;;;63.73;42.90;;;-0.40;99.90;;;;;;4997483;28;20042;-86
2022/12/12 09:21:21;;;;;;;60.30;41.67;;;-0.40;99.90;;;;;;5010565;28;20049;-86
2022/12/12 09:23:48;;;;;;;66.93;43.30;;;-0.40;99.90;;;;;;5026761;28;20460;-86
2022/12/12 09:26:14;;;;;;;64.07;42.47;;;-0.40;99.90;;;;;;5009959;28;20054;-86
2022/12/12 09:28:40;;;;;;;76.53;46.03;;;-0.30;99.90;;;;;;5027034;28;20379;-86
2022/12/12 09:31:06;;;;;;;68.40;46.37;;;-0.20;99.90;;;;;;5026166;28;20043;-86
2022/12/12 09:33:33;;;;;;;59.73;37.97;;;-0.30;99.90;;;;;;4994024;28;20065;-86
2022/12/12 09:36:00;;;;;;;52.93;35.30;;;-0.30;99.90;;;;;;4994110;28;20495;-86
2022/12/12 09:38:26;;;;;;;60.57;38.73;;;-0.40;99.90;;;;;;5009304;28;20042;-86
2022/12/12 09:41:08;;;;;;;53.97;35.77;;;-0.40;99.90;;;;;;5026257;28;20034;-86
2022/12/12 09:43:48;;;;;;;52.67;36.63;;;-0.40;99.90;;;;;;5026127;28;20042;-86
2022/12/12 09:46:31;;;;;;;49.70;35.55;;;-0.50;99.90;;;;;;4993166;28;20049;-86
2022/12/12 09:49:12;;;;;;;54.50;38.23;;;-0.40;99.90;;;;;;5009955;28;20038;-86
2022/12/12 09:51:39;;;;;;;55.00;38.95;;;-0.30;99.90;;;;;;4994686;28;20030;-86
2022/12/12 09:54:05;;;;;;;59.40;39.30;;;-0.30;99.90;;;;;;5009686;28;20042;-86
2022/12/12 09:57:09;;;;;;;58.87;38.43;;;-0.30;99.90;;;;;;5021987;28;20050;-86
2022/12/12 09:59:50;;;;;;;46.13;30.20;;;-0.20;99.90;;;;;;4999343;28;20034;-86
2022/12/12 10:02:16;;;;;;;;;;;-0.10;99.90;;;;;;4998273;28;20106;-85
2022/12/12 10:04:52;;;;;;;40.30;30.57;;;-0.20;99.90;;;;;;5029533;28;19906;-86
2022/12/12 10:07:24;;;;;;;30.63;23.20;;;-0.10;99.90;;;;;;4981458;28;20073;-86
2022/12/12 10:10:03;;;;;;;31.17;24.47;;;-0.10;99.90;;;;;;4996854;28;20467;-86
2022/12/12 10:12:29;;;;;;;32.63;20.07;;;0.00;99.90;;;;;;5013932;28;20034;-86
2022/12/12 10:15:11;;;;;;;41.27;28.37;;;0.00;99.90;;;;;;4996601;28;20045;-86
2022/12/12 10:17:40;;;;;;;42.73;29.67;;;0.00;99.90;;;;;;4997001;28;20042;-87
2022/12/12 10:20:29;;;;;;;57.70;38.03;;;0.10;99.90;;;;;;4986433;28;20042;-86
2022/12/12 10:23:06;;;;;;;41.47;29.47;;;0.20;99.90;;;;;;5009318;28;20483;-87
2022/12/12 10:25:40;;;;;;;43.07;30.87;;;0.20;99.90;;;;;;5025675;28;20053;-86
2022/12/12 10:28:17;;;;;;;48.97;31.17;;;0.40;99.90;;;;;;4993219;28;20042;-87
2022/12/12 10:30:59;;;;;;;53.40;37.37;;;0.50;99.90;;;;;;5025635;28;20026;-88
2022/12/12 10:33:25;;;;;;;;;;;0.50;99.90;;;;;;5026165;28;20038;-87
2022/12/12 10:36:07;;;;;;;36.77;26.70;;;0.60;99.90;;;;;;5009184;28;20356;-86
2022/12/12 10:38:39;;;;;;;52.27;36.77;;;0.60;99.90;;;;;;5025563;28;20033;-87
2022/12/12 10:41:14;;;;;;;53.97;38.03;;;0.70;99.90;;;;;;5008929;28;20396;-86
2022/12/12 10:43:59;;;;;;;45.20;32.90;;;0.90;99.90;;;;;;5025037;28;20038;-87
2022/12/12 10:46:32;;;;;;;51.30;37.30;;;0.80;99.90;;;;;;4993324;28;20034;-86
2022/12/12 10:48:58;;;;;;;51.67;34.13;;;0.80;99.90;;;;;;5025215;28;20502;-86
2022/12/12 10:51:26;;;;;;;58.03;34.60;;;0.90;99.90;;;;;;5008825;28;20041;-87
2022/12/12 10:53:52;;;;;;;52.60;35.20;;;0.90;99.90;;;;;;5008793;28;20046;-86
2022/12/12 10:56:26;;;;;;;44.73;28.63;;;1.00;99.90;;;;;;5035568;28;20042;-87
2022/12/12 10:58:56;;;;;;;48.10;33.93;;;1.10;99.90;;;;;;4996341;28;20033;-86
2022/12/12 11:01:30;;;;;;;43.88;30.35;;;1.10;99.90;;;;;;4979674;28;20030;-86
2022/12/12 11:03:58;;;;;;;50.13;35.60;;;1.20;99.90;;;;;;4979758;28;20505;-86
2022/12/12 11:06:32;;;;;;;45.73;34.57;;;1.20;99.90;;;;;;4995350;28;20033;-85
2022/12/12 11:09:21;;;;;;;23.57;20.03;;;1.30;99.90;;;;;;5011802;28;20021;-85
2022/12/12 11:11:59;;;;;;;57.43;38.13;;;1.30;99.90;;;;;;5011840;28;20037;-86
2022/12/12 11:14:35;;;;;;;37.43;25.43;;;1.30;99.90;;;;;;4996061;28;20541;-86
2022/12/12 11:17:02;;;;;;;54.57;34.80;;;1.30;99.90;;;;;;4995027;28;20050;-85
2022/12/12 11:19:36;;;;;;;56.50;36.03;;;1.30;99.90;;;;;;4990566;28;20034;-84
2022/12/12 11:22:02;;;;;;;52.50;34.03;;;1.40;99.90;;;;;;5008108;28;20057;-86
2022/12/12 11:24:30;;;;;;;50.63;31.97;;;1.30;99.90;;;;;;5008472;28;20039;-85
2022/12/12 11:27:01;;;;;;;50.60;32.87;;;1.30;99.90;;;;;;5008137;28;20450;-85
2022/12/12 11:29:36;;;;;;;42.40;26.83;;;1.30;99.90;;;;;;5024809;28;20269;-85
2022/12/12 11:32:02;;;;;;;45.40;29.03;;;1.40;99.90;;;;;;5024090;28;20034;-84
2022/12/12 11:34:28;;;;;;;19.00;16.83;;;1.30;99.90;;;;;;5008066;28;20407;-84
2022/12/12 11:36:56;;;;;;;47.23;33.47;;;1.30;99.90;;;;;;5024024;28;20042;-85
2022/12/12 11:39:35;;;;;;;30.63;21.83;;;1.30;99.90;;;;;;5024599;28;20352;-84
2022/12/12 11:42:11;;;;;;;43.33;29.50;;;1.30;99.90;;;;;;5024503;28;20027;-85
2022/12/12 11:44:37;;;;;;;34.63;20.27;;;1.40;99.90;;;;;;5007095;28;20034;-85
2022/12/12 11:47:39;;;;;;;42.60;30.53;;;1.40;99.90;;;;;;5023976;28;20408;-83
2022/12/12 11:50:25;;;;;;;37.27;25.90;;;1.40;99.90;;;;;;5013013;28;20141;-85
2022/12/12 11:52:57;;;;;;;21.67;17.87;;;1.50;99.90;;;;;;5013523;28;20041;-84
2022/12/12 11:55:53;;;;;;;35.87;24.43;;;1.50;99.90;;;;;;4999688;28;20029;-84
2022/12/12 11:58:26;;;;;;;18.33;16.20;;;1.50;99.90;;;;;;5049753;28;20064;-84
2022/12/12 12:00:56;;;;;;;33.27;25.07;;;1.50;99.90;;;;;;5017436;28;20033;-85
2022/12/12 12:03:48;;;;;;;16.30;15.00;;;1.50;99.90;;;;;;5020133;28;20043;-84
2022/12/12 12:06:24;;;;;;;34.40;25.07;;;1.60;99.90;;;;;;5039143;28;20048;-84
2022/12/12 12:09:08;;;;;;;41.50;27.50;;;1.60;99.90;;;;;;5037643;28;20124;-84
2022/12/12 12:11:43;;;;;;;29.87;21.07;;;1.70;99.90;;;;;;5036145;28;20053;-85
2022/12/12 12:15:07;;;;;;;48.83;29.57;;;1.70;99.90;;;;;;5036178;28;20501;-84
2022/12/12 12:17:59;;;;;;;47.80;31.53;;;1.70;99.90;;;;;;5012649;28;20041;-84
2022/12/12 12:20:50;;;;;;;39.63;27.27;;;1.90;99.90;;;;;;4996579;28;20386;-84
2022/12/12 12:23:19;;;;;;;29.58;22.67;;;2.00;99.90;;;;;;5013593;28;20150;-84
2022/12/12 12:25:50;;;;;;;37.23;25.50;;;2.10;99.90;;;;;;4993211;28;20043;-84
2022/12/12 12:28:37;;;;;;;40.70;31.80;;;2.10;99.90;;;;;;4958394;28;20135;-84
2022/12/12 12:31:03;;;;;;;41.50;28.93;;;2.10;99.90;;;;;;4973753;28;20045;-84
2022/12/12 12:33:32;;;;;;;43.80;31.30;;;2.10;99.90;;;;;;4973858;28;20027;-84
2022/12/12 12:36:01;;;;;;;43.60;31.03;;;2.20;99.90;;;;;;4974293;28;20038;-84
2022/12/12 12:38:45;;;;;;;45.17;29.47;;;2.20;99.90;;;;;;4990277;28;20447;-84
2022/12/12 12:41:32;;;;;;;37.20;26.10;;;2.20;99.90;;;;;;4974155;28;20043;-84
2022/12/12 12:44:17;;;;;;;43.00;28.77;;;2.20;99.90;;;;;;4974187;28;20373;-84
2022/12/12 12:47:20;;;;;;;40.30;28.67;;;2.20;99.90;;;;;;4957523;28;20554;-83
2022/12/12 12:50:09;;;;;;;18.60;16.97;;;2.30;99.90;;;;;;4995590;28;20490;-84
2022/12/12 12:52:39;;;;;;;24.37;19.67;;;2.30;99.90;;;;;;5018077;28;20034;-84
2022/12/12 12:55:12;;;;;;;29.73;24.10;;;2.30;99.90;;;;;;4994715;28;20046;-84
2022/12/12 12:57:39;;;;;;;32.17;20.90;;;2.20;99.90;;;;;;4997875;28;20034;-84
2022/12/12 13:00:16;;;;;;;30.53;22.27;;;2.20;99.90;;;;;;4981479;28;20045;-84